sensor_id;sensor_type;location;lat;lon;timestamp;P1;durP1;ratioP1;P2;durP2;ratioP2
27213;SDS011;14723;55.814;37.460;2023-12-14T00:01:56;22.63;;;3.92;;
27213;SDS011;14723;55.814;37.460;2023-12-14T00:05:04;24.10;;;4.43;;
27213;SDS011;14723;55.814;37.460;2023-12-14T00:08:10;41.88;;;5.05;;
27213;SDS011;14723;55.814;37.460;2023-12-14T00:11:16;23.27;;;4.43;;
27213;SDS011;14723;55.814;37.460;2023-12-14T00:14:21;23.63;;;4.25;;
27213;SDS011;14723;55.814;37.460;2023-12-14T00:17:26;27.95;;;4.30;;
27213;SDS011;14723;55.814;37.460;2023-12-14T00:20:34;28.17;;;4.57;;
27213;SDS011;14723;55.814;37.460;2023-12-14T00:23:39;27.95;;;4.70;;
27213;SDS011;14723;55.814;37.460;2023-12-14T00:26:44;31.25;;;5.63;;
27213;SDS011;14723;55.814;37.460;2023-12-14T00:29:50;33.10;;;4.72;;
27213;SDS011;14723;55.814;37.460;2023-12-14T00:32:55;32.22;;;4.90;;
27213;SDS011;14723;55.814;37.460;2023-12-14T00:36:04;29.73;;;4.95;;
27213;SDS011;14723;55.814;37.460;2023-12-14T00:39:10;21.17;;;4.60;;
27213;SDS011;14723;55.814;37.460;2023-12-14T00:42:15;25.58;;;4.45;;
27213;SDS011;14723;55.814;37.460;2023-12-14T00:45:20;25.55;;;4.47;;
27213;SDS011;14723;55.814;37.460;2023-12-14T00:48:26;32.15;;;5.63;;
27213;SDS011;14723;55.814;37.460;2023-12-14T00:51:33;39.38;;;5.93;;
27213;SDS011;14723;55.814;37.460;2023-12-14T00:54:40;28.40;;;4.55;;
27213;SDS011;14723;55.814;37.460;2023-12-14T00:57:45;25.00;;;4.40;;
27213;SDS011;14723;55.814;37.460;2023-12-14T01:00:50;25.38;;;4.75;;
27213;SDS011;14723;55.814;37.460;2023-12-14T01:03:57;26.88;;;5.20;;
27213;SDS011;14723;55.814;37.460;2023-12-14T01:07:05;22.17;;;4.93;;
27213;SDS011;14723;55.814;37.460;2023-12-14T01:10:10;26.98;;;4.85;;
27213;SDS011;14723;55.814;37.460;2023-12-14T01:13:15;24.88;;;4.88;;
27213;SDS011;14723;55.814;37.460;2023-12-14T01:16:21;34.10;;;4.63;;
27213;SDS011;14723;55.814;37.460;2023-12-14T01:19:26;30.10;;;4.80;;
27213;SDS011;14723;55.814;37.460;2023-12-14T01:22:34;31.25;;;5.40;;
27213;SDS011;14723;55.814;37.460;2023-12-14T01:25:40;22.52;;;4.78;;
27213;SDS011;14723;55.814;37.460;2023-12-14T01:28:45;43.95;;;6.57;;
27213;SDS011;14723;55.814;37.460;2023-12-14T01:31:51;33.13;;;5.10;;
27213;SDS011;14723;55.814;37.460;2023-12-14T01:34:56;25.92;;;4.85;;
27213;SDS011;14723;55.814;37.460;2023-12-14T01:38:04;24.92;;;4.35;;
27213;SDS011;14723;55.814;37.460;2023-12-14T01:41:10;33.60;;;5.28;;
27213;SDS011;14723;55.814;37.460;2023-12-14T01:44:15;31.95;;;5.10;;
27213;SDS011;14723;55.814;37.460;2023-12-14T01:47:20;28.92;;;4.80;;
27213;SDS011;14723;55.814;37.460;2023-12-14T01:50:25;36.38;;;5.13;;
27213;SDS011;14723;55.814;37.460;2023-12-14T01:53:33;28.58;;;4.82;;
27213;SDS011;14723;55.814;37.460;2023-12-14T01:59:44;19.40;;;4.57;;
27213;SDS011;14723;55.814;37.460;2023-12-14T02:02:49;34.63;;;6.10;;
27213;SDS011;14723;55.814;37.460;2023-12-14T02:05:54;30.88;;;5.53;;
27213;SDS011;14723;55.814;37.460;2023-12-14T02:09:02;31.55;;;5.57;;
27213;SDS011;14723;55.814;37.460;2023-12-14T02:15:12;37.88;;;5.78;;
27213;SDS011;14723;55.814;37.460;2023-12-14T02:18:18;24.35;;;6.75;;
27213;SDS011;14723;55.814;37.460;2023-12-14T02:21:23;36.92;;;6.38;;
27213;SDS011;14723;55.814;37.460;2023-12-14T02:24:31;36.75;;;7.00;;
27213;SDS011;14723;55.814;37.460;2023-12-14T02:27:36;30.73;;;5.63;;
27213;SDS011;14723;55.814;37.460;2023-12-14T02:30:41;32.90;;;6.38;;
27213;SDS011;14723;55.814;37.460;2023-12-14T02:33:47;32.47;;;5.03;;
27213;SDS011;14723;55.814;37.460;2023-12-14T02:36:52;25.67;;;5.35;;
27213;SDS011;14723;55.814;37.460;2023-12-14T02:40:00;28.23;;;5.20;;
27213;SDS011;14723;55.814;37.460;2023-12-14T02:43:06;38.90;;;6.15;;
27213;SDS011;14723;55.814;37.460;2023-12-14T02:46:11;29.70;;;4.72;;
27213;SDS011;14723;55.814;37.460;2023-12-14T02:49:17;33.03;;;5.72;;
27213;SDS011;14723;55.814;37.460;2023-12-14T02:52:23;29.17;;;6.22;;
27213;SDS011;14723;55.814;37.460;2023-12-14T02:55:31;25.15;;;4.72;;
27213;SDS011;14723;55.814;37.460;2023-12-14T02:58:36;26.38;;;4.93;;
27213;SDS011;14723;55.814;37.460;2023-12-14T03:01:42;33.40;;;4.70;;
27213;SDS011;14723;55.814;37.460;2023-12-14T03:04:47;40.00;;;6.95;;
27213;SDS011;14723;55.814;37.460;2023-12-14T03:07:52;35.03;;;6.53;;
27213;SDS011;14723;55.814;37.460;2023-12-14T03:11:00;27.45;;;4.93;;
27213;SDS011;14723;55.814;37.460;2023-12-14T03:14:06;32.58;;;5.93;;
27213;SDS011;14723;55.814;37.460;2023-12-14T03:17:11;45.08;;;6.07;;
27213;SDS011;14723;55.814;37.460;2023-12-14T03:20:18;39.15;;;5.60;;
27213;SDS011;14723;55.814;37.460;2023-12-14T03:23:24;25.60;;;5.47;;
27213;SDS011;14723;55.814;37.460;2023-12-14T03:26:32;36.35;;;5.65;;
27213;SDS011;14723;55.814;37.460;2023-12-14T03:29:37;36.65;;;8.23;;
27213;SDS011;14723;55.814;37.460;2023-12-14T03:32:42;40.03;;;6.10;;
27213;SDS011;14723;55.814;37.460;2023-12-14T03:35:48;27.20;;;5.55;;
27213;SDS011;14723;55.814;37.460;2023-12-14T03:38:53;32.25;;;5.07;;
27213;SDS011;14723;55.814;37.460;2023-12-14T03:42:01;42.28;;;6.03;;
27213;SDS011;14723;55.814;37.460;2023-12-14T03:45:06;45.80;;;5.93;;
27213;SDS011;14723;55.814;37.460;2023-12-14T03:48:12;23.55;;;4.75;;
27213;SDS011;14723;55.814;37.460;2023-12-14T03:51:18;38.40;;;7.13;;
27213;SDS011;14723;55.814;37.460;2023-12-14T03:54:23;30.55;;;5.28;;
27213;SDS011;14723;55.814;37.460;2023-12-14T03:57:31;26.98;;;4.75;;
27213;SDS011;14723;55.814;37.460;2023-12-14T04:00:37;34.10;;;5.45;;
27213;SDS011;14723;55.814;37.460;2023-12-14T04:03:42;29.17;;;4.80;;
27213;SDS011;14723;55.814;37.460;2023-12-14T04:06:47;29.92;;;6.47;;
27213;SDS011;14723;55.814;37.460;2023-12-14T04:09:53;40.55;;;7.35;;
27213;SDS011;14723;55.814;37.460;2023-12-14T04:13:01;30.83;;;7.05;;
27213;SDS011;14723;55.814;37.460;2023-12-14T04:16:06;31.95;;;7.15;;
27213;SDS011;14723;55.814;37.460;2023-12-14T04:19:11;36.65;;;6.80;;
27213;SDS011;14723;55.814;37.460;2023-12-14T04:22:17;25.52;;;6.35;;
27213;SDS011;14723;55.814;37.460;2023-12-14T04:25:22;29.73;;;5.93;;
27213;SDS011;14723;55.814;37.460;2023-12-14T04:28:30;29.23;;;8.27;;
27213;SDS011;14723;55.814;37.460;2023-12-14T04:31:35;39.15;;;6.00;;
27213;SDS011;14723;55.814;37.460;2023-12-14T04:34:40;42.58;;;7.43;;
27213;SDS011;14723;55.814;37.460;2023-12-14T04:37:46;35.42;;;7.93;;
27213;SDS011;14723;55.814;37.460;2023-12-14T04:40:52;38.42;;;6.25;;
27213;SDS011;14723;55.814;37.460;2023-12-14T04:43:59;40.38;;;7.93;;
27213;SDS011;14723;55.814;37.460;2023-12-14T04:47:05;57.15;;;7.03;;
27213;SDS011;14723;55.814;37.460;2023-12-14T04:50:10;43.70;;;6.78;;
27213;SDS011;14723;55.814;37.460;2023-12-14T04:53:16;33.22;;;5.78;;
27213;SDS011;14723;55.814;37.460;2023-12-14T04:56:21;37.08;;;6.63;;
27213;SDS011;14723;55.814;37.460;2023-12-14T04:59:29;28.83;;;6.20;;
27213;SDS011;14723;55.814;37.460;2023-12-14T05:02:34;35.00;;;7.70;;
27213;SDS011;14723;55.814;37.460;2023-12-14T05:05:39;36.05;;;5.80;;
27213;SDS011;14723;55.814;37.460;2023-12-14T05:08:44;37.17;;;5.05;;
27213;SDS011;14723;55.814;37.460;2023-12-14T05:11:50;37.67;;;5.72;;
27213;SDS011;14723;55.814;37.460;2023-12-14T05:14:58;42.08;;;6.15;;
27213;SDS011;14723;55.814;37.460;2023-12-14T05:21:09;36.35;;;6.10;;
27213;SDS011;14723;55.814;37.460;2023-12-14T05:24:14;38.47;;;5.25;;
27213;SDS011;14723;55.814;37.460;2023-12-14T05:27:20;40.25;;;5.35;;
27213;SDS011;14723;55.814;37.460;2023-12-14T05:30:28;39.83;;;6.30;;
27213;SDS011;14723;55.814;37.460;2023-12-14T05:33:36;29.02;;;5.47;;
27213;SDS011;14723;55.814;37.460;2023-12-14T05:36:42;42.92;;;6.00;;
27213;SDS011;14723;55.814;37.460;2023-12-14T05:39:47;41.00;;;7.00;;
27213;SDS011;14723;55.814;37.460;2023-12-14T05:42:52;29.98;;;5.78;;
27213;SDS011;14723;55.814;37.460;2023-12-14T05:46:00;40.15;;;6.72;;
27213;SDS011;14723;55.814;37.460;2023-12-14T05:52:11;37.95;;;6.35;;
27213;SDS011;14723;55.814;37.460;2023-12-14T05:55:16;30.80;;;7.30;;
27213;SDS011;14723;55.814;37.460;2023-12-14T05:58:24;36.92;;;5.60;;
27213;SDS011;14723;55.814;37.460;2023-12-14T06:01:31;32.05;;;5.28;;
27213;SDS011;14723;55.814;37.460;2023-12-14T06:04:37;42.67;;;5.30;;
27213;SDS011;14723;55.814;37.460;2023-12-14T06:07:45;32.78;;;6.07;;
27213;SDS011;14723;55.814;37.460;2023-12-14T06:10:51;27.40;;;5.03;;
27213;SDS011;14723;55.814;37.460;2023-12-14T06:13:59;37.20;;;5.93;;
27213;SDS011;14723;55.814;37.460;2023-12-14T06:17:07;28.25;;;5.43;;
27213;SDS011;14723;55.814;37.460;2023-12-14T06:20:13;40.95;;;5.35;;
27213;SDS011;14723;55.814;37.460;2023-12-14T06:23:18;33.33;;;4.80;;
27213;SDS011;14723;55.814;37.460;2023-12-14T06:26:24;38.65;;;5.97;;
27213;SDS011;14723;55.814;37.460;2023-12-14T06:29:29;33.00;;;7.57;;
27213;SDS011;14723;55.814;37.460;2023-12-14T06:32:37;39.65;;;6.22;;
27213;SDS011;14723;55.814;37.460;2023-12-14T06:35:43;34.92;;;5.18;;
27213;SDS011;14723;55.814;37.460;2023-12-14T06:38:48;45.90;;;5.82;;
27213;SDS011;14723;55.814;37.460;2023-12-14T06:41:53;32.33;;;5.55;;
27213;SDS011;14723;55.814;37.460;2023-12-14T06:44:59;43.75;;;6.55;;
27213;SDS011;14723;55.814;37.460;2023-12-14T06:48:08;45.17;;;6.60;;
27213;SDS011;14723;55.814;37.460;2023-12-14T06:51:13;28.17;;;5.18;;
27213;SDS011;14723;55.814;37.460;2023-12-14T06:54:19;26.25;;;5.40;;
27213;SDS011;14723;55.814;37.460;2023-12-14T06:57:24;32.13;;;5.10;;
27213;SDS011;14723;55.814;37.460;2023-12-14T07:00:31;37.15;;;5.90;;
27213;SDS011;14723;55.814;37.460;2023-12-14T07:03:39;39.47;;;5.85;;
27213;SDS011;14723;55.814;37.460;2023-12-14T07:06:50;35.97;;;5.70;;
27213;SDS011;14723;55.814;37.460;2023-12-14T07:09:55;45.10;;;7.95;;
27213;SDS011;14723;55.814;37.460;2023-12-14T07:13:00;31.92;;;5.70;;
27213;SDS011;14723;55.814;37.460;2023-12-14T07:16:06;42.80;;;5.63;;
27213;SDS011;14723;55.814;37.460;2023-12-14T07:19:15;34.00;;;6.38;;
27213;SDS011;14723;55.814;37.460;2023-12-14T07:22:20;32.75;;;5.43;;
27213;SDS011;14723;55.814;37.460;2023-12-14T07:25:25;45.33;;;6.95;;
27213;SDS011;14723;55.814;37.460;2023-12-14T07:28:31;36.67;;;5.93;;
27213;SDS011;14723;55.814;37.460;2023-12-14T07:31:36;36.47;;;6.97;;
27213;SDS011;14723;55.814;37.460;2023-12-14T07:34:44;33.08;;;5.93;;
27213;SDS011;14723;55.814;37.460;2023-12-14T07:37:49;40.72;;;6.25;;
27213;SDS011;14723;55.814;37.460;2023-12-14T07:40:55;41.50;;;7.50;;
27213;SDS011;14723;55.814;37.460;2023-12-14T07:44:00;33.90;;;5.28;;
27213;SDS011;14723;55.814;37.460;2023-12-14T07:47:07;35.37;;;5.50;;
27213;SDS011;14723;55.814;37.460;2023-12-14T07:50:15;30.15;;;5.72;;
27213;SDS011;14723;55.814;37.460;2023-12-14T07:53:24;41.90;;;6.65;;
27213;SDS011;14723;55.814;37.460;2023-12-14T07:56:29;46.85;;;6.00;;
27213;SDS011;14723;55.814;37.460;2023-12-14T07:59:35;44.53;;;6.38;;
27213;SDS011;14723;55.814;37.460;2023-12-14T08:02:40;26.27;;;6.28;;
27213;SDS011;14723;55.814;37.460;2023-12-14T08:05:49;36.72;;;6.47;;
27213;SDS011;14723;55.814;37.460;2023-12-14T08:08:54;36.13;;;6.28;;
27213;SDS011;14723;55.814;37.460;2023-12-14T08:12:00;31.80;;;5.75;;
27213;SDS011;14723;55.814;37.460;2023-12-14T08:15:05;39.35;;;9.75;;
27213;SDS011;14723;55.814;37.460;2023-12-14T08:18:11;57.00;;;8.40;;
27213;SDS011;14723;55.814;37.460;2023-12-14T08:21:19;43.60;;;8.00;;
27213;SDS011;14723;55.814;37.460;2023-12-14T08:24:24;41.47;;;7.47;;
27213;SDS011;14723;55.814;37.460;2023-12-14T08:27:29;49.88;;;7.05;;
27213;SDS011;14723;55.814;37.460;2023-12-14T08:30:35;35.00;;;6.07;;
27213;SDS011;14723;55.814;37.460;2023-12-14T08:33:41;26.45;;;5.35;;
27213;SDS011;14723;55.814;37.460;2023-12-14T08:36:53;35.95;;;5.68;;
27213;SDS011;14723;55.814;37.460;2023-12-14T08:43:04;43.22;;;5.10;;
27213;SDS011;14723;55.814;37.460;2023-12-14T08:46:09;46.42;;;7.53;;
27213;SDS011;14723;55.814;37.460;2023-12-14T08:49:15;38.58;;;6.15;;
27213;SDS011;14723;55.814;37.460;2023-12-14T08:52:23;31.27;;;5.97;;
27213;SDS011;14723;55.814;37.460;2023-12-14T08:55:28;30.90;;;6.05;;
27213;SDS011;14723;55.814;37.460;2023-12-14T08:58:34;42.65;;;7.38;;
27213;SDS011;14723;55.814;37.460;2023-12-14T09:01:39;34.15;;;4.85;;
27213;SDS011;14723;55.814;37.460;2023-12-14T09:04:44;43.35;;;6.55;;
27213;SDS011;14723;55.814;37.460;2023-12-14T09:07:53;40.33;;;6.28;;
27213;SDS011;14723;55.814;37.460;2023-12-14T09:11:00;28.60;;;5.38;;
27213;SDS011;14723;55.814;37.460;2023-12-14T09:14:06;42.50;;;6.97;;
27213;SDS011;14723;55.814;37.460;2023-12-14T09:17:11;34.75;;;5.82;;
27213;SDS011;14723;55.814;37.460;2023-12-14T09:20:17;36.50;;;7.13;;
27213;SDS011;14723;55.814;37.460;2023-12-14T09:23:25;26.55;;;5.85;;
27213;SDS011;14723;55.814;37.460;2023-12-14T09:26:30;41.22;;;7.40;;
27213;SDS011;14723;55.814;37.460;2023-12-14T09:29:35;42.53;;;6.18;;
27213;SDS011;14723;55.814;37.460;2023-12-14T09:32:44;46.35;;;6.47;;
27213;SDS011;14723;55.814;37.460;2023-12-14T09:35:49;37.20;;;6.65;;
27213;SDS011;14723;55.814;37.460;2023-12-14T09:38:57;34.20;;;6.10;;
27213;SDS011;14723;55.814;37.460;2023-12-14T09:42:03;28.60;;;5.05;;
27213;SDS011;14723;55.814;37.460;2023-12-14T09:45:09;43.17;;;7.75;;
27213;SDS011;14723;55.814;37.460;2023-12-14T09:48:15;40.03;;;6.05;;
27213;SDS011;14723;55.814;37.460;2023-12-14T09:51:20;44.67;;;6.10;;
27213;SDS011;14723;55.814;37.460;2023-12-14T09:54:28;26.13;;;6.22;;
27213;SDS011;14723;55.814;37.460;2023-12-14T09:57:33;29.70;;;5.95;;
27213;SDS011;14723;55.814;37.460;2023-12-14T10:00:40;31.25;;;5.15;;
27213;SDS011;14723;55.814;37.460;2023-12-14T10:03:45;37.88;;;5.82;;
27213;SDS011;14723;55.814;37.460;2023-12-14T10:06:51;25.70;;;5.07;;
27213;SDS011;14723;55.814;37.460;2023-12-14T10:09:59;31.67;;;4.90;;
27213;SDS011;14723;55.814;37.460;2023-12-14T10:13:15;37.33;;;5.63;;
27213;SDS011;14723;55.814;37.460;2023-12-14T10:16:27;29.92;;;6.25;;
27213;SDS011;14723;55.814;37.460;2023-12-14T10:19:33;43.28;;;5.95;;
27213;SDS011;14723;55.814;37.460;2023-12-14T10:22:38;43.75;;;6.20;;
27213;SDS011;14723;55.814;37.460;2023-12-14T10:25:46;42.63;;;8.45;;
27213;SDS011;14723;55.814;37.460;2023-12-14T10:28:52;36.67;;;5.80;;
27213;SDS011;14723;55.814;37.460;2023-12-14T10:31:57;36.95;;;6.82;;
27213;SDS011;14723;55.814;37.460;2023-12-14T10:35:03;26.95;;;5.60;;
27213;SDS011;14723;55.814;37.460;2023-12-14T10:38:09;39.75;;;5.97;;
27213;SDS011;14723;55.814;37.460;2023-12-14T10:41:18;37.33;;;5.93;;
27213;SDS011;14723;55.814;37.460;2023-12-14T10:44:26;31.88;;;5.40;;
27213;SDS011;14723;55.814;37.460;2023-12-14T10:47:51;38.90;;;5.60;;
27213;SDS011;14723;55.814;37.460;2023-12-14T10:50:57;34.65;;;7.45;;
27213;SDS011;14723;55.814;37.460;2023-12-14T10:54:07;29.40;;;5.47;;
27213;SDS011;14723;55.814;37.460;2023-12-14T10:57:15;41.08;;;6.13;;
27213;SDS011;14723;55.814;37.460;2023-12-14T11:00:21;38.40;;;5.68;;
27213;SDS011;14723;55.814;37.460;2023-12-14T11:03:26;35.88;;;5.25;;
27213;SDS011;14723;55.814;37.460;2023-12-14T11:06:32;35.92;;;7.30;;
27213;SDS011;14723;55.814;37.460;2023-12-14T11:09:38;33.03;;;6.40;;
27213;SDS011;14723;55.814;37.460;2023-12-14T11:12:54;36.85;;;6.05;;
27213;SDS011;14723;55.814;37.460;2023-12-14T11:16:00;49.60;;;7.25;;
27213;SDS011;14723;55.814;37.460;2023-12-14T11:22:27;48.33;;;7.22;;
27213;SDS011;14723;55.814;37.460;2023-12-14T11:25:33;42.72;;;6.32;;
27213;SDS011;14723;55.814;37.460;2023-12-14T11:28:49;35.05;;;6.80;;
27213;SDS011;14723;55.814;37.460;2023-12-14T11:31:55;39.47;;;6.22;;
27213;SDS011;14723;55.814;37.460;2023-12-14T11:35:01;40.83;;;7.15;;
27213;SDS011;14723;55.814;37.460;2023-12-14T11:38:06;39.78;;;6.53;;
27213;SDS011;14723;55.814;37.460;2023-12-14T11:41:15;37.20;;;7.68;;
27213;SDS011;14723;55.814;37.460;2023-12-14T11:44:24;30.40;;;6.10;;
27213;SDS011;14723;55.814;37.460;2023-12-14T11:47:30;33.42;;;5.90;;
27213;SDS011;14723;55.814;37.460;2023-12-14T11:50:36;31.65;;;5.78;;
27213;SDS011;14723;55.814;37.460;2023-12-14T11:53:43;43.95;;;6.28;;
27213;SDS011;14723;55.814;37.460;2023-12-14T11:56:49;23.05;;;5.07;;
27213;SDS011;14723;55.814;37.460;2023-12-14T11:59:57;28.05;;;5.97;;
27213;SDS011;14723;55.814;37.460;2023-12-14T12:03:09;30.95;;;5.47;;
27213;SDS011;14723;55.814;37.460;2023-12-14T12:06:21;29.77;;;5.85;;
27213;SDS011;14723;55.814;37.460;2023-12-14T12:09:33;34.85;;;8.05;;
27213;SDS011;14723;55.814;37.460;2023-12-14T12:12:39;36.00;;;6.78;;
27213;SDS011;14723;55.814;37.460;2023-12-14T12:15:49;32.78;;;6.15;;
27213;SDS011;14723;55.814;37.460;2023-12-14T12:18:56;27.92;;;6.70;;
27213;SDS011;14723;55.814;37.460;2023-12-14T12:22:01;33.20;;;5.65;;
27213;SDS011;14723;55.814;37.460;2023-12-14T12:25:07;38.38;;;7.38;;
27213;SDS011;14723;55.814;37.460;2023-12-14T12:28:16;32.10;;;6.65;;
27213;SDS011;14723;55.814;37.460;2023-12-14T12:31:24;31.60;;;6.45;;
27213;SDS011;14723;55.814;37.460;2023-12-14T12:34:29;41.78;;;6.68;;
27213;SDS011;14723;55.814;37.460;2023-12-14T12:37:34;37.67;;;5.88;;
27213;SDS011;14723;55.814;37.460;2023-12-14T12:40:40;30.85;;;6.63;;
27213;SDS011;14723;55.814;37.460;2023-12-14T12:43:46;32.88;;;6.50;;
27213;SDS011;14723;55.814;37.460;2023-12-14T12:46:54;35.83;;;6.60;;
27213;SDS011;14723;55.814;37.460;2023-12-14T12:50:12;32.65;;;6.22;;
27213;SDS011;14723;55.814;37.460;2023-12-14T12:53:17;36.15;;;6.80;;
27213;SDS011;14723;55.814;37.460;2023-12-14T12:56:23;46.25;;;6.57;;
27213;SDS011;14723;55.814;37.460;2023-12-14T12:59:28;29.85;;;6.13;;
27213;SDS011;14723;55.814;37.460;2023-12-14T13:02:36;53.00;;;7.28;;
27213;SDS011;14723;55.814;37.460;2023-12-14T13:05:42;32.50;;;6.30;;
27213;SDS011;14723;55.814;37.460;2023-12-14T13:08:48;36.53;;;6.78;;
27213;SDS011;14723;55.814;37.460;2023-12-14T13:11:53;40.40;;;6.97;;
27213;SDS011;14723;55.814;37.460;2023-12-14T13:14:58;32.97;;;5.90;;
27213;SDS011;14723;55.814;37.460;2023-12-14T13:18:07;19.85;;;4.88;;
27213;SDS011;14723;55.814;37.460;2023-12-14T13:21:13;27.83;;;5.70;;
27213;SDS011;14723;55.814;37.460;2023-12-14T13:24:18;34.15;;;7.07;;
27213;SDS011;14723;55.814;37.460;2023-12-14T13:27:23;39.13;;;6.53;;
27213;SDS011;14723;55.814;37.460;2023-12-14T13:30:28;33.75;;;7.30;;
27213;SDS011;14723;55.814;37.460;2023-12-14T13:33:37;36.03;;;7.18;;
27213;SDS011;14723;55.814;37.460;2023-12-14T13:36:42;50.53;;;7.32;;
27213;SDS011;14723;55.814;37.460;2023-12-14T13:39:47;34.65;;;7.32;;
27213;SDS011;14723;55.814;37.460;2023-12-14T13:42:54;36.13;;;6.72;;
27213;SDS011;14723;55.814;37.460;2023-12-14T13:46:08;32.08;;;7.03;;
27213;SDS011;14723;55.814;37.460;2023-12-14T13:49:25;44.10;;;6.10;;
27213;SDS011;14723;55.814;37.460;2023-12-14T13:52:30;37.33;;;7.35;;
27213;SDS011;14723;55.814;37.460;2023-12-14T13:55:36;40.22;;;7.38;;
27213;SDS011;14723;55.814;37.460;2023-12-14T13:58:41;31.58;;;6.53;;
27213;SDS011;14723;55.814;37.460;2023-12-14T14:01:47;35.22;;;6.25;;
27213;SDS011;14723;55.814;37.460;2023-12-14T14:04:56;32.38;;;6.18;;
27213;SDS011;14723;55.814;37.460;2023-12-14T14:08:01;39.85;;;8.02;;
27213;SDS011;14723;55.814;37.460;2023-12-14T14:11:18;36.17;;;7.23;;
27213;SDS011;14723;55.814;37.460;2023-12-14T14:14:24;35.50;;;7.03;;
27213;SDS011;14723;55.814;37.460;2023-12-14T14:17:29;36.92;;;7.10;;
27213;SDS011;14723;55.814;37.460;2023-12-14T14:20:37;35.35;;;7.40;;
27213;SDS011;14723;55.814;37.460;2023-12-14T14:23:43;39.15;;;6.90;;
27213;SDS011;14723;55.814;37.460;2023-12-14T14:26:48;30.42;;;6.45;;
27213;SDS011;14723;55.814;37.460;2023-12-14T14:29:54;44.85;;;7.65;;
27213;SDS011;14723;55.814;37.460;2023-12-14T14:32:59;30.15;;;6.47;;
27213;SDS011;14723;55.814;37.460;2023-12-14T14:36:08;40.08;;;8.07;;
27213;SDS011;14723;55.814;37.460;2023-12-14T14:39:13;42.38;;;7.57;;
27213;SDS011;14723;55.814;37.460;2023-12-14T14:42:20;24.48;;;4.95;;
27213;SDS011;14723;55.814;37.460;2023-12-14T14:45:26;28.55;;;6.50;;
27213;SDS011;14723;55.814;37.460;2023-12-14T14:48:31;39.45;;;7.25;;
27213;SDS011;14723;55.814;37.460;2023-12-14T14:51:39;45.88;;;7.25;;
27213;SDS011;14723;55.814;37.460;2023-12-14T14:54:45;43.03;;;8.07;;
27213;SDS011;14723;55.814;37.460;2023-12-14T14:57:50;42.15;;;6.97;;
27213;SDS011;14723;55.814;37.460;2023-12-14T15:00:55;34.72;;;5.97;;
27213;SDS011;14723;55.814;37.460;2023-12-14T15:04:01;28.10;;;6.78;;
27213;SDS011;14723;55.814;37.460;2023-12-14T15:07:09;40.10;;;7.25;;
27213;SDS011;14723;55.814;37.460;2023-12-14T15:10:15;31.15;;;6.65;;
27213;SDS011;14723;55.814;37.460;2023-12-14T15:13:20;32.53;;;6.57;;
27213;SDS011;14723;55.814;37.460;2023-12-14T15:16:25;40.22;;;6.65;;
27213;SDS011;14723;55.814;37.460;2023-12-14T15:19:30;43.05;;;7.32;;
27213;SDS011;14723;55.814;37.460;2023-12-14T15:22:38;35.53;;;7.80;;
27213;SDS011;14723;55.814;37.460;2023-12-14T15:25:43;51.33;;;8.57;;
27213;SDS011;14723;55.814;37.460;2023-12-14T15:28:49;46.25;;;7.82;;
27213;SDS011;14723;55.814;37.460;2023-12-14T15:31:54;39.63;;;7.78;;
27213;SDS011;14723;55.814;37.460;2023-12-14T15:35:00;49.75;;;8.02;;
27213;SDS011;14723;55.814;37.460;2023-12-14T15:38:07;40.85;;;7.43;;
27213;SDS011;14723;55.814;37.460;2023-12-14T15:44:18;46.33;;;6.88;;
27213;SDS011;14723;55.814;37.460;2023-12-14T15:47:24;46.90;;;7.85;;
27213;SDS011;14723;55.814;37.460;2023-12-14T15:50:29;40.83;;;8.73;;
27213;SDS011;14723;55.814;37.460;2023-12-14T15:53:37;57.90;;;9.93;;
27213;SDS011;14723;55.814;37.460;2023-12-14T15:56:42;46.80;;;7.57;;
27213;SDS011;14723;55.814;37.460;2023-12-14T15:59:47;40.75;;;7.68;;
27213;SDS011;14723;55.814;37.460;2023-12-14T16:02:52;42.10;;;8.65;;
27213;SDS011;14723;55.814;37.460;2023-12-14T16:05:58;52.55;;;7.43;;
27213;SDS011;14723;55.814;37.460;2023-12-14T16:09:06;53.53;;;8.73;;
27213;SDS011;14723;55.814;37.460;2023-12-14T16:12:11;42.50;;;8.50;;
27213;SDS011;14723;55.814;37.460;2023-12-14T16:15:16;49.45;;;7.95;;
27213;SDS011;14723;55.814;37.460;2023-12-14T16:18:22;38.88;;;8.10;;
27213;SDS011;14723;55.814;37.460;2023-12-14T16:21:28;41.58;;;8.32;;
27213;SDS011;14723;55.814;37.460;2023-12-14T16:24:37;36.83;;;8.32;;
27213;SDS011;14723;55.814;37.460;2023-12-14T16:27:42;49.35;;;8.25;;
27213;SDS011;14723;55.814;37.460;2023-12-14T16:30:48;53.90;;;8.85;;
27213;SDS011;14723;55.814;37.460;2023-12-14T16:33:54;55.28;;;10.23;;
27213;SDS011;14723;55.814;37.460;2023-12-14T16:37:00;60.83;;;9.50;;
27213;SDS011;14723;55.814;37.460;2023-12-14T16:40:10;45.75;;;8.77;;
27213;SDS011;14723;55.814;37.460;2023-12-14T16:43:15;43.25;;;8.68;;
27213;SDS011;14723;55.814;37.460;2023-12-14T16:46:21;59.75;;;9.05;;
27213;SDS011;14723;55.814;37.460;2023-12-14T16:49:27;45.05;;;9.05;;
27213;SDS011;14723;55.814;37.460;2023-12-14T16:52:32;66.93;;;9.50;;
27213;SDS011;14723;55.814;37.460;2023-12-14T16:55:40;47.50;;;7.95;;
27213;SDS011;14723;55.814;37.460;2023-12-14T17:01:52;59.85;;;9.60;;
27213;SDS011;14723;55.814;37.460;2023-12-14T17:04:58;46.03;;;9.38;;
27213;SDS011;14723;55.814;37.460;2023-12-14T17:08:05;61.30;;;9.10;;
27213;SDS011;14723;55.814;37.460;2023-12-14T17:11:13;59.22;;;9.65;;
27213;SDS011;14723;55.814;37.460;2023-12-14T17:14:19;59.58;;;10.48;;
27213;SDS011;14723;55.814;37.460;2023-12-14T17:17:25;60.35;;;9.10;;
27213;SDS011;14723;55.814;37.460;2023-12-14T17:20:36;61.17;;;8.98;;
27213;SDS011;14723;55.814;37.460;2023-12-14T17:23:41;48.63;;;8.18;;
27213;SDS011;14723;55.814;37.460;2023-12-14T17:26:49;46.42;;;9.50;;
27213;SDS011;14723;55.814;37.460;2023-12-14T17:29:54;63.33;;;8.07;;
27213;SDS011;14723;55.814;37.460;2023-12-14T17:32:59;54.95;;;9.68;;
27213;SDS011;14723;55.814;37.460;2023-12-14T17:36:08;45.03;;;8.82;;
27213;SDS011;14723;55.814;37.460;2023-12-14T17:39:13;46.10;;;8.20;;
27213;SDS011;14723;55.814;37.460;2023-12-14T17:42:21;44.47;;;7.78;;
27213;SDS011;14723;55.814;37.460;2023-12-14T17:45:26;48.20;;;8.13;;
27213;SDS011;14723;55.814;37.460;2023-12-14T17:48:32;52.50;;;9.07;;
27213;SDS011;14723;55.814;37.460;2023-12-14T17:51:41;53.72;;;7.85;;
27213;SDS011;14723;55.814;37.460;2023-12-14T17:54:46;42.80;;;8.32;;
27213;SDS011;14723;55.814;37.460;2023-12-14T17:57:55;42.10;;;7.82;;
27213;SDS011;14723;55.814;37.460;2023-12-14T18:01:01;50.63;;;9.85;;
27213;SDS011;14723;55.814;37.460;2023-12-14T18:04:07;77.22;;;8.70;;
27213;SDS011;14723;55.814;37.460;2023-12-14T18:07:12;39.95;;;8.75;;
27213;SDS011;14723;55.814;37.460;2023-12-14T18:10:20;49.13;;;6.55;;
27213;SDS011;14723;55.814;37.460;2023-12-14T18:13:29;52.63;;;7.22;;
27213;SDS011;14723;55.814;37.460;2023-12-14T18:19:40;52.15;;;7.50;;
27213;SDS011;14723;55.814;37.460;2023-12-14T18:22:46;39.95;;;6.85;;
27213;SDS011;14723;55.814;37.460;2023-12-14T18:25:52;50.67;;;7.95;;
27213;SDS011;14723;55.814;37.460;2023-12-14T18:28:59;57.95;;;7.97;;
27213;SDS011;14723;55.814;37.460;2023-12-14T18:32:05;33.58;;;7.43;;
27213;SDS011;14723;55.814;37.460;2023-12-14T18:35:10;45.63;;;7.05;;
27213;SDS011;14723;55.814;37.460;2023-12-14T18:38:15;30.70;;;6.43;;